sensor_id;sensor_type;location;lat;lon;timestamp;temperature;humidity
5940;DHT22;2995;-31.998;115.906;2022-10-16T00:00:46;19.40;99.90
5940;DHT22;2995;-31.998;115.906;2022-10-16T00:03:19;19.10;99.90
5940;DHT22;2995;-31.998;115.906;2022-10-16T00:05:50;19.30;99.90
5940;DHT22;2995;-31.998;115.906;2022-10-16T00:08:24;19.60;99.90
5940;DHT22;2995;-31.998;115.906;2022-10-16T00:11:00;19.80;99.90
5940;DHT22;2995;-31.998;115.906;2022-10-16T00:13:32;20.40;99.90
5940;DHT22;2995;-31.998;115.906;2022-10-16T00:16:06;21.00;99.90
5940;DHT22;2995;-31.998;115.906;2022-10-16T00:18:38;20.10;99.90
5940;DHT22;2995;-31.998;115.906;2022-10-16T00:21:11;19.30;99.90
5940;DHT22;2995;-31.998;115.906;2022-10-16T00:23:45;18.80;99.90
5940;DHT22;2995;-31.998;115.906;2022-10-16T00:26:17;18.10;99.90
5940;DHT22;2995;-31.998;115.906;2022-10-16T00:28:48;17.80;99.90
5940;DHT22;2995;-31.998;115.906;2022-10-16T00:31:21;17.70;99.90
5940;DHT22;2995;-31.998;115.906;2022-10-16T00:33:55;17.40;99.90
5940;DHT22;2995;-31.998;115.906;2022-10-16T00:36:28;17.50;99.90
5940;DHT22;2995;-31.998;115.906;2022-10-16T00:39:02;18.20;99.90
5940;DHT22;2995;-31.998;115.906;2022-10-16T00:41:33;19.10;99.90
5940;DHT22;2995;-31.998;115.906;2022-10-16T00:46:51;19.60;99.90
5940;DHT22;2995;-31.998;115.906;2022-10-16T00:49:22;19.90;99.90
5940;DHT22;2995;-31.998;115.906;2022-10-16T00:51:55;20.90;99.90
5940;DHT22;2995;-31.998;115.906;2022-10-16T00:54:30;20.10;99.90
5940;DHT22;2995;-31.998;115.906;2022-10-16T00:57:04;18.80;99.90
5940;DHT22;2995;-31.998;115.906;2022-10-16T00:59:37;18.70;99.90
5940;DHT22;2995;-31.998;115.906;2022-10-16T01:02:10;19.00;99.90
5940;DHT22;2995;-31.998;115.906;2022-10-16T01:04:43;19.60;99.90
5940;DHT22;2995;-31.998;115.906;2022-10-16T01:07:20;20.40;99.90
5940;DHT22;2995;-31.998;115.906;2022-10-16T01:10:07;20.60;99.90
5940;DHT22;2995;-31.998;115.906;2022-10-16T01:12:44;21.10;99.90
5940;DHT22;2995;-31.998;115.906;2022-10-16T01:15:20;21.10;99.90
5940;DHT22;2995;-31.998;115.906;2022-10-16T01:17:58;21.20;99.90
5940;DHT22;2995;-31.998;115.906;2022-10-16T01:20:33;21.10;99.90
5940;DHT22;2995;-31.998;115.906;2022-10-16T01:23:16;20.90;99.90
5940;DHT22;2995;-31.998;115.906;2022-10-16T01:28:52;20.80;99.90
5940;DHT22;2995;-31.998;115.906;2022-10-16T01:31:29;20.80;99.90
5940;DHT22;2995;-31.998;115.906;2022-10-16T01:34:03;20.90;99.90
5940;DHT22;2995;-31.998;115.906;2022-10-16T01:36:39;21.00;99.90
5940;DHT22;2995;-31.998;115.906;2022-10-16T01:39:12;20.80;99.90
5940;DHT22;2995;-31.998;115.906;2022-10-16T01:41:47;20.40;99.90
5940;DHT22;2995;-31.998;115.906;2022-10-16T01:44:24;20.50;99.90
5940;DHT22;2995;-31.998;115.906;2022-10-16T01:46:57;20.50;99.90
5940;DHT22;2995;-31.998;115.906;2022-10-16T01:49:31;20.50;99.90
5940;DHT22;2995;-31.998;115.906;2022-10-16T01:52:07;20.20;99.90
5940;DHT22;2995;-31.998;115.906;2022-10-16T01:54:42;20.30;99.90
5940;DHT22;2995;-31.998;115.906;2022-10-16T01:57:15;20.30;99.90
5940;DHT22;2995;-31.998;115.906;2022-10-16T01:59:51;20.50;99.90
5940;DHT22;2995;-31.998;115.906;2022-10-16T02:02:24;20.50;99.90
5940;DHT22;2995;-31.998;115.906;2022-10-16T02:05:02;20.40;99.90
5940;DHT22;2995;-31.998;115.906;2022-10-16T02:07:35;20.30;99.90
5940;DHT22;2995;-31.998;115.906;2022-10-16T02:10:07;20.40;99.90
5940;DHT22;2995;-31.998;115.906;2022-10-16T02:12:40;20.30;99.90
5940;DHT22;2995;-31.998;115.906;2022-10-16T02:15:15;20.20;99.90
5940;DHT22;2995;-31.998;115.906;2022-10-16T02:17:46;20.10;99.90
5940;DHT22;2995;-31.998;115.906;2022-10-16T02:20:18;20.10;99.90
5940;DHT22;2995;-31.998;115.906;2022-10-16T02:22:52;20.10;99.90
5940;DHT22;2995;-31.998;115.906;2022-10-16T02:25:27;20.20;99.90
5940;DHT22;2995;-31.998;115.906;2022-10-16T02:28:06;20.40;99.90
5940;DHT22;2995;-31.998;115.906;2022-10-16T02:30:41;20.50;99.90
5940;DHT22;2995;-31.998;115.906;2022-10-16T02:33:17;20.50;99.90
5940;DHT22;2995;-31.998;115.906;2022-10-16T02:35:49;20.50;99.90
5940;DHT22;2995;-31.998;115.906;2022-10-16T02:38:21;20.50;99.90
5940;DHT22;2995;-31.998;115.906;2022-10-16T02:40:53;20.40;99.90
5940;DHT22;2995;-31.998;115.906;2022-10-16T02:43:26;20.50;99.90
5940;DHT22;2995;-31.998;115.906;2022-10-16T02:45:59;20.50;99.90
5940;DHT22;2995;-31.998;115.906;2022-10-16T02:48:31;20.40;99.90
5940;DHT22;2995;-31.998;115.906;2022-10-16T02:51:02;20.20;99.90
5940;DHT22;2995;-31.998;115.906;2022-10-16T02:53:34;20.30;99.90
5940;DHT22;2995;-31.998;115.906;2022-10-16T02:56:05;20.50;99.90
5940;DHT22;2995;-31.998;115.906;2022-10-16T02:58:36;20.60;99.90
5940;DHT22;2995;-31.998;115.906;2022-10-16T03:01:10;20.60;99.90
5940;DHT22;2995;-31.998;115.906;2022-10-16T03:03:42;20.70;99.90
5940;DHT22;2995;-31.998;115.906;2022-10-16T03:06:13;20.70;99.90
5940;DHT22;2995;-31.998;115.906;2022-10-16T03:08:44;20.80;99.90
5940;DHT22;2995;-31.998;115.906;2022-10-16T03:11:17;20.90;99.90
5940;DHT22;2995;-31.998;115.906;2022-10-16T03:13:48;20.90;99.90
5940;DHT22;2995;-31.998;115.906;2022-10-16T03:16:21;20.80;99.90
5940;DHT22;2995;-31.998;115.906;2022-10-16T03:18:53;20.80;99.90
5940;DHT22;2995;-31.998;115.906;2022-10-16T03:21:24;20.70;99.90
5940;DHT22;2995;-31.998;115.906;2022-10-16T03:23:55;20.70;99.90
5940;DHT22;2995;-31.998;115.906;2022-10-16T03:26:26;20.60;99.90
5940;DHT22;2995;-31.998;115.906;2022-10-16T03:28:57;20.80;99.90
5940;DHT22;2995;-31.998;115.906;2022-10-16T03:31:32;20.90;99.90
5940;DHT22;2995;-31.998;115.906;2022-10-16T03:34:03;21.00;99.90
5940;DHT22;2995;-31.998;115.906;2022-10-16T03:36:39;21.00;99.90
5940;DHT22;2995;-31.998;115.906;2022-10-16T03:39:10;20.80;99.90
5940;DHT22;2995;-31.998;115.906;2022-10-16T03:41:41;20.90;99.90
5940;DHT22;2995;-31.998;115.906;2022-10-16T03:44:14;20.80;99.90
5940;DHT22;2995;-31.998;115.906;2022-10-16T03:46:47;20.90;99.90
5940;DHT22;2995;-31.998;115.906;2022-10-16T03:49:18;20.80;99.90
5940;DHT22;2995;-31.998;115.906;2022-10-16T03:51:50;20.90;99.90
5940;DHT22;2995;-31.998;115.906;2022-10-16T03:54:21;20.90;99.90
5940;DHT22;2995;-31.998;115.906;2022-10-16T03:56:54;21.00;99.90
5940;DHT22;2995;-31.998;115.906;2022-10-16T03:59:25;21.10;99.90
5940;DHT22;2995;-31.998;115.906;2022-10-16T04:01:58;21.10;99.90
5940;DHT22;2995;-31.998;115.906;2022-10-16T04:04:29;21.20;99.90
5940;DHT22;2995;-31.998;115.906;2022-10-16T04:07:01;21.30;99.90
5940;DHT22;2995;-31.998;115.906;2022-10-16T04:09:32;21.30;99.90
5940;DHT22;2995;-31.998;115.906;2022-10-16T04:12:03;21.50;99.90
5940;DHT22;2995;-31.998;115.906;2022-10-16T04:14:35;21.30;99.90
5940;DHT22;2995;-31.998;115.906;2022-10-16T04:17:09;21.10;99.90
5940;DHT22;2995;-31.998;115.906;2022-10-16T04:19:40;20.90;99.90
5940;DHT22;2995;-31.998;115.906;2022-10-16T04:22:11;21.00;99.90
5940;DHT22;2995;-31.998;115.906;2022-10-16T04:24:43;21.00;99.90
5940;DHT22;2995;-31.998;115.906;2022-10-16T04:27:14;21.10;99.90
5940;DHT22;2995;-31.998;115.906;2022-10-16T04:29:45;21.00;99.90
5940;DHT22;2995;-31.998;115.906;2022-10-16T04:32:18;21.00;99.90
5940;DHT22;2995;-31.998;115.906;2022-10-16T04:34:49;21.20;99.90
5940;DHT22;2995;-31.998;115.906;2022-10-16T04:37:24;21.10;99.90
5940;DHT22;2995;-31.998;115.906;2022-10-16T04:39:55;20.80;99.90
5940;DHT22;2995;-31.998;115.906;2022-10-16T04:42:27;20.80;99.90
5940;DHT22;2995;-31.998;115.906;2022-10-16T04:44:58;20.90;99.90
5940;DHT22;2995;-31.998;115.906;2022-10-16T04:47:33;20.80;99.90
5940;DHT22;2995;-31.998;115.906;2022-10-16T04:50:04;20.90;99.90
5940;DHT22;2995;-31.998;115.906;2022-10-16T04:52:36;20.90;99.90
5940;DHT22;2995;-31.998;115.906;2022-10-16T04:55:10;20.80;99.90
5940;DHT22;2995;-31.998;115.906;2022-10-16T04:57:42;20.90;99.90
5940;DHT22;2995;-31.998;115.906;2022-10-16T05:00:13;20.90;99.90
5940;DHT22;2995;-31.998;115.906;2022-10-16T05:02:47;21.10;99.90
5940;DHT22;2995;-31.998;115.906;2022-10-16T05:05:18;20.90;99.90
5940;DHT22;2995;-31.998;115.906;2022-10-16T05:07:49;20.80;99.90
5940;DHT22;2995;-31.998;115.906;2022-10-16T05:10:20;20.80;99.90
5940;DHT22;2995;-31.998;115.906;2022-10-16T05:12:53;20.70;99.90
5940;DHT22;2995;-31.998;115.906;2022-10-16T05:15:26;20.70;99.90
5940;DHT22;2995;-31.998;115.906;2022-10-16T05:17:59;20.60;99.90
5940;DHT22;2995;-31.998;115.906;2022-10-16T05:20:30;20.80;99.90
5940;DHT22;2995;-31.998;115.906;2022-10-16T05:23:01;20.90;99.90
5940;DHT22;2995;-31.998;115.906;2022-10-16T05:25:33;21.00;99.90
5940;DHT22;2995;-31.998;115.906;2022-10-16T05:28:04;20.60;99.90
5940;DHT22;2995;-31.998;115.906;2022-10-16T05:30:37;20.80;99.90
5940;DHT22;2995;-31.998;115.906;2022-10-16T05:33:10;21.00;99.90
5940;DHT22;2995;-31.998;115.906;2022-10-16T05:35:41;20.90;99.90
5940;DHT22;2995;-31.998;115.906;2022-10-16T05:38:13;20.60;99.90
5940;DHT22;2995;-31.998;115.906;2022-10-16T05:40:49;20.80;99.90
5940;DHT22;2995;-31.998;115.906;2022-10-16T05:43:21;20.50;99.90
5940;DHT22;2995;-31.998;115.906;2022-10-16T05:45:56;20.60;99.90
5940;DHT22;2995;-31.998;115.906;2022-10-16T05:48:30;20.60;99.90
5940;DHT22;2995;-31.998;115.906;2022-10-16T05:51:02;20.60;99.90
5940;DHT22;2995;-31.998;115.906;2022-10-16T05:53:36;20.40;99.90
5940;DHT22;2995;-31.998;115.906;2022-10-16T05:56:09;20.60;99.90
5940;DHT22;2995;-31.998;115.906;2022-10-16T05:58:41;20.50;99.90
5940;DHT22;2995;-31.998;115.906;2022-10-16T06:01:13;20.70;99.90
5940;DHT22;2995;-31.998;115.906;2022-10-16T06:03:46;20.70;99.90
5940;DHT22;2995;-31.998;115.906;2022-10-16T06:06:19;20.70;99.90
5940;DHT22;2995;-31.998;115.906;2022-10-16T06:08:52;20.50;99.90
5940;DHT22;2995;-31.998;115.906;2022-10-16T06:11:25;20.50;99.90
5940;DHT22;2995;-31.998;115.906;2022-10-16T06:13:58;20.50;99.90
5940;DHT22;2995;-31.998;115.906;2022-10-16T06:16:30;20.60;99.90
5940;DHT22;2995;-31.998;115.906;2022-10-16T06:19:05;20.70;99.90
5940;DHT22;2995;-31.998;115.906;2022-10-16T06:21:37;20.50;99.90
5940;DHT22;2995;-31.998;115.906;2022-10-16T06:24:10;20.50;99.90
5940;DHT22;2995;-31.998;115.906;2022-10-16T06:26:42;20.50;99.90
5940;DHT22;2995;-31.998;115.906;2022-10-16T06:29:13;20.50;99.90
5940;DHT22;2995;-31.998;115.906;2022-10-16T06:31:44;20.50;99.90
5940;DHT22;2995;-31.998;115.906;2022-10-16T06:34:17;20.70;99.90
5940;DHT22;2995;-31.998;115.906;2022-10-16T06:36:49;20.70;99.90
5940;DHT22;2995;-31.998;115.906;2022-10-16T06:39:20;20.60;99.90
5940;DHT22;2995;-31.998;115.906;2022-10-16T06:41:51;20.50;99.90
5940;DHT22;2995;-31.998;115.906;2022-10-16T06:44:24;20.50;99.90
5940;DHT22;2995;-31.998;115.906;2022-10-16T06:46:55;20.70;99.90
5940;DHT22;2995;-31.998;115.906;2022-10-16T06:49:28;20.90;99.90
5940;DHT22;2995;-31.998;115.906;2022-10-16T06:51:59;20.90;99.90
5940;DHT22;2995;-31.998;115.906;2022-10-16T06:54:33;20.70;99.90
5940;DHT22;2995;-31.998;115.906;2022-10-16T06:57:04;20.80;99.90
5940;DHT22;2995;-31.998;115.906;2022-10-16T06:59:35;20.60;99.90
5940;DHT22;2995;-31.998;115.906;2022-10-16T07:02:08;20.60;99.90
5940;DHT22;2995;-31.998;115.906;2022-10-16T07:04:41;20.60;99.90
5940;DHT22;2995;-31.998;115.906;2022-10-16T07:07:12;20.80;99.90
5940;DHT22;2995;-31.998;115.906;2022-10-16T07:09:43;20.90;99.90
5940;DHT22;2995;-31.998;115.906;2022-10-16T07:12:14;20.90;99.90
5940;DHT22;2995;-31.998;115.906;2022-10-16T07:14:46;21.00;99.90
5940;DHT22;2995;-31.998;115.906;2022-10-16T07:17:17;21.20;99.90
5940;DHT22;2995;-31.998;115.906;2022-10-16T07:19:50;21.20;99.90
5940;DHT22;2995;-31.998;115.906;2022-10-16T07:22:23;21.20;99.90
5940;DHT22;2995;-31.998;115.906;2022-10-16T07:24:54;21.00;99.90
5940;DHT22;2995;-31.998;115.906;2022-10-16T07:27:25;21.10;99.90
5940;DHT22;2995;-31.998;115.906;2022-10-16T07:29:56;20.80;99.90
5940;DHT22;2995;-31.998;115.906;2022-10-16T07:32:28;20.60;99.90
5940;DHT22;2995;-31.998;115.906;2022-10-16T07:35:03;20.30;99.90
5940;DHT22;2995;-31.998;115.906;2022-10-16T07:37:36;20.30;99.90
5940;DHT22;2995;-31.998;115.906;2022-10-16T07:40:10;20.70;99.90
5940;DHT22;2995;-31.998;115.906;2022-10-16T07:42:41;20.50;99.90
5940;DHT22;2995;-31.998;115.906;2022-10-16T07:45:12;20.20;99.90
5940;DHT22;2995;-31.998;115.906;2022-10-16T07:47:45;20.10;99.90
5940;DHT22;2995;-31.998;115.906;2022-10-16T07:50:18;20.20;99.90
5940;DHT22;2995;-31.998;115.906;2022-10-16T07:52:51;20.30;99.90
5940;DHT22;2995;-31.998;115.906;2022-10-16T07:55:22;20.30;99.90
5940;DHT22;2995;-31.998;115.906;2022-10-16T07:57:54;20.00;99.90
5940;DHT22;2995;-31.998;115.906;2022-10-16T08:00:25;19.90;99.90
5940;DHT22;2995;-31.998;115.906;2022-10-16T08:02:57;19.70;99.90
5940;DHT22;2995;-31.998;115.906;2022-10-16T08:05:32;19.80;99.90
5940;DHT22;2995;-31.998;115.906;2022-10-16T08:08:04;19.80;99.90
5940;DHT22;2995;-31.998;115.906;2022-10-16T08:10:36;19.70;99.90
5940;DHT22;2995;-31.998;115.906;2022-10-16T08:13:08;19.70;99.90
5940;DHT22;2995;-31.998;115.906;2022-10-16T08:15:42;19.60;99.90
5940;DHT22;2995;-31.998;115.906;2022-10-16T08:18:14;19.60;99.90
5940;DHT22;2995;-31.998;115.906;2022-10-16T08:20:48;19.60;99.90
5940;DHT22;2995;-31.998;115.906;2022-10-16T08:23:19;19.50;99.90
5940;DHT22;2995;-31.998;115.906;2022-10-16T08:25:50;19.30;99.90
5940;DHT22;2995;-31.998;115.906;2022-10-16T08:28:22;19.30;99.90
5940;DHT22;2995;-31.998;115.906;2022-10-16T08:30:53;19.30;99.90
5940;DHT22;2995;-31.998;115.906;2022-10-16T08:33:24;19.30;99.90
5940;DHT22;2995;-31.998;115.906;2022-10-16T08:35:58;19.30;99.90
5940;DHT22;2995;-31.998;115.906;2022-10-16T08:38:29;19.20;99.90
5940;DHT22;2995;-31.998;115.906;2022-10-16T08:41:17;19.10;99.90
5940;DHT22;2995;-31.998;115.906;2022-10-16T08:44:09;19.10;99.90
5940;DHT22;2995;-31.998;115.906;2022-10-16T08:46:49;18.90;99.90
5940;DHT22;2995;-31.998;115.906;2022-10-16T08:49:24;18.90;99.90
5940;DHT22;2995;-31.998;115.906;2022-10-16T08:51:58;18.80;99.90
5940;DHT22;2995;-31.998;115.906;2022-10-16T08:54:34;18.80;99.90
5940;DHT22;2995;-31.998;115.906;2022-10-16T08:57:11;18.90;99.90
5940;DHT22;2995;-31.998;115.906;2022-10-16T08:59:42;18.80;99.90
5940;DHT22;2995;-31.998;115.906;2022-10-16T09:02:26;19.00;99.90
5940;DHT22;2995;-31.998;115.906;2022-10-16T09:05:10;19.00;99.90
5940;DHT22;2995;-31.998;115.906;2022-10-16T09:07:58;18.90;99.90
5940;DHT22;2995;-31.998;115.906;2022-10-16T09:10:42;19.10;99.90
5940;DHT22;2995;-31.998;115.906;2022-10-16T09:13:23;19.10;99.90
5940;DHT22;2995;-31.998;115.906;2022-10-16T09:16:03;19.00;99.90
5940;DHT22;2995;-31.998;115.906;2022-10-16T09:18:43;18.90;99.90
5940;DHT22;2995;-31.998;115.906;2022-10-16T09:21:18;18.70;99.90
5940;DHT22;2995;-31.998;115.906;2022-10-16T09:23:52;18.80;99.90
5940;DHT22;2995;-31.998;115.906;2022-10-16T09:26:25;18.80;99.90
5940;DHT22;2995;-31.998;115.906;2022-10-16T09:28:56;18.50;99.90
5940;DHT22;2995;-31.998;115.906;2022-10-16T09:31:27;18.40;99.90
5940;DHT22;2995;-31.998;115.906;2022-10-16T09:34:01;18.40;99.90
5940;DHT22;2995;-31.998;115.906;2022-10-16T09:36:39;18.30;99.90
5940;DHT22;2995;-31.998;115.906;2022-10-16T09:39:13;18.50;99.90
5940;DHT22;2995;-31.998;115.906;2022-10-16T09:41:45;18.50;99.90
5940;DHT22;2995;-31.998;115.906;2022-10-16T09:44:21;18.40;99.90
5940;DHT22;2995;-31.998;115.906;2022-10-16T09:47:03;18.40;99.90
5940;DHT22;2995;-31.998;115.906;2022-10-16T09:49:35;18.40;99.90
5940;DHT22;2995;-31.998;115.906;2022-10-16T09:52:11;18.50;99.90
5940;DHT22;2995;-31.998;115.906;2022-10-16T09:54:53;18.50;99.90
5940;DHT22;2995;-31.998;115.906;2022-10-16T09:57:25;18.40;99.90
5940;DHT22;2995;-31.998;115.906;2022-10-16T09:59:58;18.20;99.90
5940;DHT22;2995;-31.998;115.906;2022-10-16T10:02:31;18.10;99.90
5940;DHT22;2995;-31.998;115.906;2022-10-16T10:05:17;18.10;99.90
5940;DHT22;2995;-31.998;115.906;2022-10-16T10:07:55;18.10;99.90
5940;DHT22;2995;-31.998;115.906;2022-10-16T10:10:30;18.00;99.90
5940;DHT22;2995;-31.998;115.906;2022-10-16T10:13:02;17.80;99.90
5940;DHT22;2995;-31.998;115.906;2022-10-16T10:15:36;17.90;99.90
5940;DHT22;2995;-31.998;115.906;2022-10-16T10:18:18;17.90;99.90
5940;DHT22;2995;-31.998;115.906;2022-10-16T10:20:59;17.90;99.90
5940;DHT22;2995;-31.998;115.906;2022-10-16T10:23:31;17.80;99.90
5940;DHT22;2995;-31.998;115.906;2022-10-16T10:26:08;17.70;99.90
5940;DHT22;2995;-31.998;115.906;2022-10-16T10:28:55;17.80;99.90
5940;DHT22;2995;-31.998;115.906;2022-10-16T10:31:35;17.70;99.90
5940;DHT22;2995;-31.998;115.906;2022-10-16T10:34:21;17.60;99.90
5940;DHT22;2995;-31.998;115.906;2022-10-16T10:36:56;17.60;99.90
5940;DHT22;2995;-31.998;115.906;2022-10-16T10:39:35;17.60;99.90
5940;DHT22;2995;-31.998;115.906;2022-10-16T10:42:22;17.60;99.90
5940;DHT22;2995;-31.998;115.906;2022-10-16T10:45:03;17.60;99.90
5940;DHT22;2995;-31.998;115.906;2022-10-16T10:47:46;17.60;99.90
5940;DHT22;2995;-31.998;115.906;2022-10-16T10:50:24;17.60;99.90
5940;DHT22;2995;-31.998;115.906;2022-10-16T10:53:03;17.50;99.90
5940;DHT22;2995;-31.998;115.906;2022-10-16T10:55:42;17.60;99.90
5940;DHT22;2995;-31.998;115.906;2022-10-16T10:58:39;17.50;99.90
5940;DHT22;2995;-31.998;115.906;2022-10-16T11:01:14;17.50;99.90
5940;DHT22;2995;-31.998;115.906;2022-10-16T11:04:00;17.50;99.90
5940;DHT22;2995;-31.998;115.906;2022-10-16T11:06:35;17.40;99.90
5940;DHT22;2995;-31.998;115.906;2022-10-16T11:09:13;17.40;99.90
5940;DHT22;2995;-31.998;115.906;2022-10-16T11:11:49;17.40;99.90
5940;DHT22;2995;-31.998;115.906;2022-10-16T11:14:26;17.30;99.90
5940;DHT22;2995;-31.998;115.906;2022-10-16T11:17:04;17.30;99.90
5940;DHT22;2995;-31.998;115.906;2022-10-16T11:19:41;17.40;99.90
5940;DHT22;2995;-31.998;115.906;2022-10-16T11:22:21;17.40;99.90
5940;DHT22;2995;-31.998;115.906;2022-10-16T11:24:58;17.40;99.90
5940;DHT22;2995;-31.998;115.906;2022-10-16T11:27:37;17.30;99.90
5940;DHT22;2995;-31.998;115.906;2022-10-16T11:30:16;17.20;99.90
5940;DHT22;2995;-31.998;115.906;2022-10-16T11:33:13;17.20;99.90
5940;DHT22;2995;-31.998;115.906;2022-10-16T11:35:55;17.10;99.90
5940;DHT22;2995;-31.998;115.906;2022-10-16T11:38:32;17.10;99.90
5940;DHT22;2995;-31.998;115.906;2022-10-16T11:41:10;17.10;99.90
5940;DHT22;2995;-31.998;115.906;2022-10-16T11:43:48;17.20;99.90
5940;DHT22;2995;-31.998;115.906;2022-10-16T11:46:25;17.10;99.90
5940;DHT22;2995;-31.998;115.906;2022-10-16T11:49:03;17.20;99.90
5940;DHT22;2995;-31.998;115.906;2022-10-16T11:51:40;17.00;99.90
5940;DHT22;2995;-31.998;115.906;2022-10-16T11:54:20;17.00;99.90
5940;DHT22;2995;-31.998;115.906;2022-10-16T11:56:56;17.00;99.90
5940;DHT22;2995;-31.998;115.906;2022-10-16T11:59:31;16.90;99.90
5940;DHT22;2995;-31.998;115.906;2022-10-16T12:02:23;16.90;99.90
5940;DHT22;2995;-31.998;115.906;2022-10-16T12:05:06;16.70;99.90
5940;DHT22;2995;-31.998;115.906;2022-10-16T12:07:41;16.70;99.90
5940;DHT22;2995;-31.998;115.906;2022-10-16T12:10:22;16.70;99.90
5940;DHT22;2995;-31.998;115.906;2022-10-16T12:12:54;16.70;99.90
5940;DHT22;2995;-31.998;115.906;2022-10-16T12:15:27;16.50;99.90
5940;DHT22;2995;-31.998;115.906;2022-10-16T12:18:00;16.50;99.90
5940;DHT22;2995;-31.998;115.906;2022-10-16T12:20:32;16.50;99.90
5940;DHT22;2995;-31.998;115.906;2022-10-16T12:23:05;16.40;99.90
5940;DHT22;2995;-31.998;115.906;2022-10-16T12:25:37;16.40;99.90
5940;DHT22;2995;-31.998;115.906;2022-10-16T12:28:22;16.40;99.90
5940;DHT22;2995;-31.998;115.906;2022-10-16T12:31:02;16.30;99.90
5940;DHT22;2995;-31.998;115.906;2022-10-16T12:33:36;16.40;99.90
5940;DHT22;2995;-31.998;115.906;2022-10-16T12:36:13;16.30;99.90
5940;DHT22;2995;-31.998;115.906;2022-10-16T12:38:48;16.20;99.90
5940;DHT22;2995;-31.998;115.906;2022-10-16T12:41:27;16.10;99.90
5940;DHT22;2995;-31.998;115.906;2022-10-16T12:43:59;16.10;99.90
5940;DHT22;2995;-31.998;115.906;2022-10-16T12:46:39;16.10;99.90
5940;DHT22;2995;-31.998;115.906;2022-10-16T12:49:29;16.10;99.90
5940;DHT22;2995;-31.998;115.906;2022-10-16T12:52:00;16.00;99.90
5940;DHT22;2995;-31.998;115.906;2022-10-16T12:54:35;16.00;99.90
5940;DHT22;2995;-31.998;115.906;2022-10-16T12:57:26;15.90;99.90
5940;DHT22;2995;-31.998;115.906;2022-10-16T13:00:09;16.00;99.90
5940;DHT22;2995;-31.998;115.906;2022-10-16T13:03:00;16.00;99.90
5940;DHT22;2995;-31.998;115.906;2022-10-16T13:05:44;16.00;99.90
5940;DHT22;2995;-31.998;115.906;2022-10-16T13:08:31;15.90;99.90
5940;DHT22;2995;-31.998;115.906;2022-10-16T13:11:08;15.80;99.90
5940;DHT22;2995;-31.998;115.906;2022-10-16T13:13:56;15.90;99.90
5940;DHT22;2995;-31.998;115.906;2022-10-16T13:16:39;16.00;99.90
5940;DHT22;2995;-31.998;115.906;2022-10-16T13:19:22;16.00;99.90
5940;DHT22;2995;-31.998;115.906;2022-10-16T13:22:03;15.90;99.90
5940;DHT22;2995;-31.998;115.906;2022-10-16T13:24:48;15.90;99.90
5940;DHT22;2995;-31.998;115.906;2022-10-16T13:27:29;15.70;99.90
5940;DHT22;2995;-31.998;115.906;2022-10-16T13:30:12;15.70;99.90
5940;DHT22;2995;-31.998;115.906;2022-10-16T13:32:46;15.50;99.90
5940;DHT22;2995;-31.998;115.906;2022-10-16T13:35:23;15.40;99.90
5940;DHT22;2995;-31.998;115.906;2022-10-16T13:38:11;15.40;99.90
5940;DHT22;2995;-31.998;115.906;2022-10-16T13:40:54;15.30;99.90
5940;DHT22;2995;-31.998;115.906;2022-10-16T13:43:27;15.30;99.90
5940;DHT22;2995;-31.998;115.906;2022-10-16T13:46:01;15.30;99.90
5940;DHT22;2995;-31.998;115.906;2022-10-16T13:48:33;15.20;99.90
5940;DHT22;2995;-31.998;115.906;2022-10-16T13:51:10;15.20;99.90
5940;DHT22;2995;-31.998;115.906;2022-10-16T13:53:45;15.30;99.90
5940;DHT22;2995;-31.998;115.906;2022-10-16T13:56:18;15.30;99.90
5940;DHT22;2995;-31.998;115.906;2022-10-16T13:59:00;15.20;99.90
5940;DHT22;2995;-31.998;115.906;2022-10-16T14:01:33;15.40;99.90
5940;DHT22;2995;-31.998;115.906;2022-10-16T14:04:06;15.40;99.90
5940;DHT22;2995;-31.998;115.906;2022-10-16T14:06:42;15.60;99.90
5940;DHT22;2995;-31.998;115.906;2022-10-16T14:09:22;15.50;99.90
5940;DHT22;2995;-31.998;115.906;2022-10-16T14:11:58;15.60;99.90
5940;DHT22;2995;-31.998;115.906;2022-10-16T14:14:42;15.50;99.90
5940;DHT22;2995;-31.998;115.906;2022-10-16T14:17:20;15.50;99.90
5940;DHT22;2995;-31.998;115.906;2022-10-16T14:19:55;15.30;99.90
5940;DHT22;2995;-31.998;115.906;2022-10-16T14:22:31;15.10;99.90
5940;DHT22;2995;-31.998;115.906;2022-10-16T14:25:24;15.00;99.90
5940;DHT22;2995;-31.998;115.906;2022-10-16T14:28:01;14.80;99.90
5940;DHT22;2995;-31.998;115.906;2022-10-16T14:30:34;14.80;99.90
5940;DHT22;2995;-31.998;115.906;2022-10-16T14:33:20;14.80;99.90
5940;DHT22;2995;-31.998;115.906;2022-10-16T14:36:05;15.00;99.90
5940;DHT22;2995;-31.998;115.906;2022-10-16T14:38:37;14.80;99.90
5940;DHT22;2995;-31.998;115.906;2022-10-16T14:41:10;14.80;99.90
5940;DHT22;2995;-31.998;115.906;2022-10-16T14:43:43;14.60;99.90
5940;DHT22;2995;-31.998;115.906;2022-10-16T14:46:16;14.80;99.90
5940;DHT22;2995;-31.998;115.906;2022-10-16T14:48:49;14.80;99.90
5940;DHT22;2995;-31.998;115.906;2022-10-16T14:51:21;14.80;99.90
5940;DHT22;2995;-31.998;115.906;2022-10-16T14:53:52;14.80;99.90
5940;DHT22;2995;-31.998;115.906;2022-10-16T14:56:29;14.70;99.90
5940;DHT22;2995;-31.998;115.906;2022-10-16T14:59:01;14.70;99.90
5940;DHT22;2995;-31.998;115.906;2022-10-16T15:01:33;14.50;99.90
5940;DHT22;2995;-31.998;115.906;2022-10-16T15:04:04;14.60;99.90
5940;DHT22;2995;-31.998;115.906;2022-10-16T15:06:35;14.70;99.90
5940;DHT22;2995;-31.998;115.906;2022-10-16T15:09:07;14.80;99.90
5940;DHT22;2995;-31.998;115.906;2022-10-16T15:11:40;14.90;99.90
5940;DHT22;2995;-31.998;115.906;2022-10-16T15:14:13;15.00;99.90
5940;DHT22;2995;-31.998;115.906;2022-10-16T15:16:44;14.90;99.90
5940;DHT22;2995;-31.998;115.906;2022-10-16T15:19:16;14.80;99.90
5940;DHT22;2995;-31.998;115.906;2022-10-16T15:21:47;14.70;99.90
5940;DHT22;2995;-31.998;115.906;2022-10-16T15:24:19;14.80;99.90
5940;DHT22;2995;-31.998;115.906;2022-10-16T15:26:52;14.90;99.90
5940;DHT22;2995;-31.998;115.906;2022-10-16T15:29:23;14.90;99.90
5940;DHT22;2995;-31.998;115.906;2022-10-16T15:31:54;14.70;99.90
5940;DHT22;2995;-31.998;115.906;2022-10-16T15:34:25;14.60;99.90
5940;DHT22;2995;-31.998;115.906;2022-10-16T15:36:56;14.80;99.90
5940;DHT22;2995;-31.998;115.906;2022-10-16T15:39:28;14.90;99.90
5940;DHT22;2995;-31.998;115.906;2022-10-16T15:42:01;14.80;99.90
5940;DHT22;2995;-31.998;115.906;2022-10-16T15:44:33;14.60;99.90
5940;DHT22;2995;-31.998;115.906;2022-10-16T15:47:05;14.70;99.90
5940;DHT22;2995;-31.998;115.906;2022-10-16T15:49:36;14.70;99.90
5940;DHT22;2995;-31.998;115.906;2022-10-16T15:52:09;14.60;99.90
5940;DHT22;2995;-31.998;115.906;2022-10-16T15:54:40;14.60;99.90
5940;DHT22;2995;-31.998;115.906;2022-10-16T15:57:13;14.50;99.90
5940;DHT22;2995;-31.998;115.906;2022-10-16T15:59:45;14.40;99.90
5940;DHT22;2995;-31.998;115.906;2022-10-16T16:02:16;14.40;99.90
5940;DHT22;2995;-31.998;115.906;2022-10-16T16:04:47;14.20;99.90
5940;DHT22;2995;-31.998;115.906;2022-10-16T16:07:18;14.20;99.90